createdAt,value
2019-05-25T00:01:40.043Z,10.90
2019-05-25T00:11:47.496Z,11.53
2019-05-25T00:21:56.708Z,10.40
2019-05-25T00:32:03.603Z,15.10
2019-05-25T00:42:09.809Z,12.30
2019-05-25T00:52:17.880Z,10.47
2019-05-25T01:02:25.607Z,10.60
2019-05-25T01:12:31.826Z,10.10
2019-05-25T01:22:37.504Z,9.43
2019-05-25T01:32:47.127Z,9.93
2019-05-25T01:42:53.558Z,9.73
2019-05-25T01:53:00.732Z,9.10
2019-05-25T02:03:09.338Z,8.13
2019-05-25T02:13:19.789Z,7.77
2019-05-25T02:23:27.247Z,7.70
2019-05-25T02:33:36.701Z,7.90
2019-05-25T02:43:44.419Z,7.90
2019-05-25T02:53:53.965Z,7.43
2019-05-25T03:04:04.010Z,8.03
2019-05-25T03:14:12.373Z,8.50
2019-05-25T03:24:19.097Z,8.63
2019-05-25T03:34:26.347Z,8.50
2019-05-25T03:44:32.723Z,9.10
2019-05-25T03:54:38.833Z,8.53
2019-05-25T04:04:44.946Z,9.30
2019-05-25T04:14:50.995Z,8.17
2019-05-25T04:24:58.323Z,9.40
2019-05-25T04:35:10.841Z,9.07
2019-05-25T04:45:19.364Z,9.75
2019-05-25T04:55:26.525Z,9.40
2019-05-25T05:05:33.547Z,10.30
2019-05-25T05:15:40.901Z,10.45
2019-05-25T05:25:47.641Z,9.83
2019-05-25T05:35:54.625Z,8.13
2019-05-25T05:46:03.662Z,8.25
2019-05-25T05:56:09.778Z,6.37
2019-05-25T06:06:17.365Z,5.70
2019-05-25T06:16:23.578Z,5.75
2019-05-25T06:26:29.739Z,5.90
2019-05-25T06:36:37.329Z,5.03
2019-05-25T06:46:46.197Z,6.53
2019-05-25T06:56:53.969Z,8.68
2019-05-25T07:07:00.708Z,10.05
2019-05-25T07:17:06.852Z,5.70
2019-05-25T07:27:13.123Z,4.40
2019-05-25T07:37:21.518Z,4.00
2019-05-25T07:47:30.314Z,4.55
2019-05-25T07:57:37.836Z,3.15
2019-05-25T08:07:44.374Z,3.33
2019-05-25T08:17:52.312Z,3.12
2019-05-25T08:27:59.750Z,2.70
2019-05-25T08:38:05.526Z,2.65
2019-05-25T08:48:12.340Z,2.65
2019-05-25T08:58:23.274Z,2.70
2019-05-25T09:08:30.572Z,2.80
2019-05-25T09:18:38.220Z,2.80
2019-05-25T09:28:45.839Z,3.20
2019-05-25T09:38:53.529Z,3.10
2019-05-25T09:49:03.310Z,3.23
2019-05-25T09:59:19.993Z,3.70
2019-05-25T10:09:22.414Z,5.20
2019-05-25T10:19:31.113Z,5.40
2019-05-25T10:29:38.270Z,3.83
2019-05-25T10:39:46.591Z,4.67
2019-05-25T10:49:52.705Z,3.27
2019-05-25T11:00:03.243Z,5.10
2019-05-25T11:10:10.786Z,3.97
2019-05-25T11:20:24.246Z,3.70
2019-05-25T11:30:30.819Z,4.53
2019-05-25T11:40:37.097Z,4.07
2019-05-25T11:50:44.765Z,4.87
2019-05-25T12:00:51.855Z,4.87
2019-05-25T12:10:58.987Z,14.70
2019-05-25T12:21:10.868Z,4.17
2019-05-25T12:31:18.471Z,4.10
2019-05-25T12:41:26.869Z,3.30
2019-05-25T12:51:35.886Z,3.97
2019-05-25T13:01:44.157Z,3.93
2019-05-25T13:11:52.757Z,4.63
2019-05-25T13:21:59.165Z,4.27
2019-05-25T13:32:05.914Z,5.10
2019-05-25T13:42:16.648Z,5.20
2019-05-25T13:52:26.979Z,5.23
2019-05-25T14:02:35.565Z,6.43
2019-05-25T14:12:42.334Z,6.07
2019-05-25T14:22:50.957Z,6.13
2019-05-25T14:32:57.836Z,5.77
2019-05-25T14:43:06.319Z,5.50
2019-05-25T14:53:13.232Z,5.67
2019-05-25T15:03:20.502Z,5.20
2019-05-25T15:13:29.789Z,3.77
2019-05-25T15:23:35.598Z,3.20
2019-05-25T15:33:43.493Z,2.70
2019-05-25T15:43:51.672Z,2.97
2019-05-25T15:54:10.689Z,2.93
2019-05-25T16:04:25.488Z,2.30
2019-05-25T16:14:33.144Z,1.90
2019-05-25T16:24:42.148Z,2.27
2019-05-25T16:34:49.360Z,2.50
2019-05-25T16:44:55.723Z,3.07
2019-05-25T16:55:02.531Z,2.50
2019-05-25T17:05:11.134Z,3.07
2019-05-25T17:15:17.918Z,2.60
2019-05-25T17:25:24.380Z,2.87
2019-05-25T17:35:30.962Z,2.47
2019-05-25T17:45:42.837Z,2.33
2019-05-25T17:55:56.807Z,2.53
2019-05-25T18:06:04.984Z,2.57
2019-05-25T18:16:14.041Z,2.70
2019-05-25T18:26:21.248Z,2.53
2019-05-25T18:36:29.878Z,2.10
2019-05-25T18:46:37.434Z,2.80
2019-05-25T18:56:45.749Z,2.43
2019-05-25T19:06:53.846Z,3.00
2019-05-25T19:17:00.983Z,3.00
2019-05-25T19:27:08.683Z,3.43
2019-05-25T19:37:19.131Z,3.17
2019-05-25T19:47:24.633Z,5.43
2019-05-25T19:57:32.229Z,4.30
2019-05-25T20:07:40.240Z,4.60
2019-05-25T20:17:48.681Z,3.80
2019-05-25T20:27:55.151Z,4.43
2019-05-25T20:38:02.161Z,4.77
2019-05-25T20:48:10.888Z,4.63
2019-05-25T20:58:27.402Z,4.93
2019-05-25T21:08:34.927Z,6.67
2019-05-25T21:18:42.095Z,5.20
2019-05-25T21:28:49.338Z,4.87
2019-05-25T21:38:55.393Z,4.27
2019-05-25T21:49:01.330Z,4.27
2019-05-25T21:59:07.454Z,4.17
2019-05-25T22:09:14.150Z,4.53
2019-05-25T22:19:19.928Z,4.70
2019-05-25T22:29:25.859Z,5.37
2019-05-25T22:39:33.572Z,5.07
2019-05-25T22:49:42.586Z,5.30
2019-05-25T22:59:48.554Z,4.97
2019-05-25T23:09:55.283Z,5.93
2019-05-25T23:20:01.816Z,5.70
2019-05-25T23:30:09.008Z,5.10
2019-05-25T23:40:17.404Z,4.67
2019-05-25T23:50:23.130Z,5.10
